Time;durP1;ratioP1;P1;durP2;ratioP2;P2;SDS_P1;SDS_P2;PMS_P1;PMS_P2;Temp;Humidity;BMP_temperature;BMP_pressure;BME280_temperature;BME280_humidity;BME280_pressure;Samples;Min_cycle;Max_cycle;Signal;HPM_P1;HPM_P2
2022/02/17 00:00:25;;;;;;;1.60;1.10;;;13.30;98.20;;;;;;4950194;28;20467;-74
2022/02/17 00:02:54;;;;;;;1.60;1.07;;;13.30;98.20;;;;;;4950276;28;20486;-74
2022/02/17 00:05:22;;;;;;;1.60;1.00;;;13.30;98.20;;;;;;4950685;28;20522;-74
2022/02/17 00:07:49;;;;;;;1.60;1.10;;;13.20;98.20;;;;;;4952985;28;20483;-74
2022/02/17 00:10:17;;;;;;;1.60;1.10;;;13.20;98.20;;;;;;4949879;28;20469;-74
2022/02/17 00:12:44;;;;;;;1.60;1.20;;;13.20;98.20;;;;;;4950467;28;20490;-73
2022/02/17 00:15:11;;;;;;;1.60;1.00;;;13.10;98.20;;;;;;4949668;28;20473;-73
2022/02/17 00:17:38;;;;;;;1.60;1.00;;;13.10;98.20;;;;;;4950198;28;20467;-73
2022/02/17 00:20:08;;;;;;;1.60;1.20;;;13.10;98.20;;;;;;4950446;28;20545;-73
2022/02/17 00:22:35;;;;;;;1.60;1.00;;;13.10;98.20;;;;;;4951939;28;20865;-73
2022/02/17 00:25:03;;;;;;;1.60;1.10;;;13.10;98.20;;;;;;4950618;28;20478;-73
2022/02/17 00:27:30;;;;;;;1.60;1.07;;;13.10;98.20;;;;;;4949594;28;20895;-73
2022/02/17 00:29:57;;;;;;;1.60;1.00;;;13.10;98.20;;;;;;4949356;28;20546;-73
2022/02/17 00:32:23;;;;;;;1.60;1.10;;;13.10;98.20;;;;;;4951922;28;20499;-73
2022/02/17 00:34:50;;;;;;;1.60;1.17;;;13.00;98.20;;;;;;4952529;28;20467;-74
2022/02/17 00:37:18;;;;;;;1.60;1.10;;;13.00;98.20;;;;;;4949454;28;20467;-73
2022/02/17 00:39:45;;;;;;;1.60;1.10;;;13.10;98.20;;;;;;4949722;28;21053;-74
2022/02/17 00:42:12;;;;;;;1.60;1.10;;;13.10;98.20;;;;;;4949906;28;20490;-73
2022/02/17 00:44:39;;;;;;;1.60;1.07;;;13.10;98.20;;;;;;4950593;28;20545;-74
2022/02/17 00:47:06;;;;;;;1.60;1.10;;;13.10;98.20;;;;;;4955302;28;20498;-73
2022/02/17 00:49:33;;;;;;;1.60;1.10;;;13.10;98.20;;;;;;4949359;28;20581;-74
2022/02/17 00:51:59;;;;;;;1.60;1.10;;;13.10;98.20;;;;;;4951592;28;20793;-73
2022/02/17 00:54:28;;;;;;;1.60;1.00;;;13.10;98.20;;;;;;4950031;28;20479;-74
2022/02/17 00:56:54;;;;;;;1.60;1.00;;;13.10;98.20;;;;;;4951727;28;20471;-73
2022/02/17 00:59:21;;;;;;;1.60;1.20;;;13.10;98.20;;;;;;4949570;28;20458;-72
2022/02/17 01:01:48;;;;;;;1.60;1.10;;;13.10;98.20;;;;;;4948995;28;20828;-72
2022/02/17 01:04:15;;;;;;;1.60;1.10;;;13.00;98.20;;;;;;4949600;28;20890;-73
2022/02/17 01:06:42;;;;;;;1.60;1.10;;;13.00;98.20;;;;;;4950157;28;20494;-73
2022/02/17 01:09:10;;;;;;;1.60;1.10;;;13.00;98.20;;;;;;4949957;28;21005;-73
2022/02/17 01:11:39;;;;;;;1.60;1.00;;;13.00;98.20;;;;;;4950151;28;20873;-73
2022/02/17 01:14:06;;;;;;;1.60;1.00;;;13.00;98.20;;;;;;4954684;28;20513;-73
2022/02/17 01:16:34;;;;;;;1.60;1.00;;;13.00;98.20;;;;;;4949602;28;20467;-73
2022/02/17 01:19:00;;;;;;;1.60;1.00;;;13.00;98.20;;;;;;4949277;28;20474;-73
2022/02/17 01:21:27;;;;;;;1.60;1.00;;;13.00;98.20;;;;;;4949494;28;20470;-72
2022/02/17 01:23:54;;;;;;;1.60;1.00;;;13.00;98.20;;;;;;4950297;28;20533;-72
2022/02/17 01:26:21;;;;;;;1.60;1.00;;;13.00;98.20;;;;;;4949818;28;20472;-71
2022/02/17 01:28:49;;;;;;;1.60;1.00;;;12.90;98.20;;;;;;4949009;28;20871;-72
2022/02/17 01:31:18;;;;;;;1.60;1.03;;;12.80;98.20;;;;;;4947611;28;20477;-73
2022/02/17 01:33:45;;;;;;;1.60;1.10;;;12.70;98.20;;;;;;4951910;28;20572;-72
2022/02/17 01:36:12;;;;;;;1.60;1.00;;;12.70;98.20;;;;;;4948469;28;20467;-72
2022/02/17 01:38:40;;;;;;;1.60;1.10;;;12.70;98.20;;;;;;4951079;28;20466;-72
2022/02/17 01:41:09;;;;;;;1.60;1.00;;;12.60;98.20;;;;;;4950847;28;20842;-72
2022/02/17 01:43:37;;;;;;;1.60;1.00;;;12.60;98.20;;;;;;4955952;28;20462;-73
2022/02/17 01:46:06;;;;;;;1.60;1.13;;;12.60;98.20;;;;;;4952164;28;20466;-73
2022/02/17 01:48:33;;;;;;;1.60;1.20;;;12.60;98.20;;;;;;4952821;28;20864;-73
2022/02/17 01:51:00;;;;;;;1.60;1.00;;;12.70;98.20;;;;;;4951980;28;20966;-72
2022/02/17 01:53:30;;;;;;;1.60;1.10;;;12.70;98.20;;;;;;4952862;28;20533;-72
2022/02/17 01:55:57;;;;;;;2.20;1.50;;;12.60;98.20;;;;;;4952995;28;20466;-72
2022/02/17 01:58:24;;;;;;;1.60;1.20;;;12.60;98.20;;;;;;4951693;28;21010;-72
2022/02/17 02:00:51;;;;;;;1.60;1.20;;;12.60;98.20;;;;;;4950420;28;20956;-73
2022/02/17 02:03:20;;;;;;;1.60;1.10;;;12.50;98.20;;;;;;4951123;28;20486;-73
2022/02/17 02:05:47;;;;;;;1.60;1.10;;;12.50;98.20;;;;;;4944768;29;20466;-73
2022/02/17 02:08:14;;;;;;;1.60;1.10;;;12.50;98.20;;;;;;4948160;29;20498;-73
2022/02/17 02:10:41;;;;;;;1.60;1.10;;;12.50;98.20;;;;;;4951683;28;20475;-72
2022/02/17 02:13:08;;;;;;;1.60;1.10;;;12.50;98.20;;;;;;4952023;28;20494;-73
2022/02/17 02:15:49;;;;;;;1.60;1.20;;;12.50;98.20;;;;;;4952258;28;20466;-73
2022/02/17 02:18:17;;;;;;;1.60;1.00;;;12.50;98.20;;;;;;4952060;28;20554;-73
2022/02/17 02:20:47;;;;;;;1.60;1.10;;;12.50;98.20;;;;;;4951104;28;20851;-73
2022/02/17 02:23:14;;;;;;;1.60;1.10;;;12.50;98.20;;;;;;4951302;28;20485;-73
2022/02/17 02:25:45;;;;;;;1.60;1.10;;;12.50;98.20;;;;;;4951963;28;20729;-73
2022/02/17 02:28:12;;;;;;;1.60;1.10;;;12.40;98.20;;;;;;4952096;28;20463;-73
2022/02/17 02:30:39;;;;;;;2.23;2.03;;;12.40;98.20;;;;;;4949850;28;20869;-73
2022/02/17 02:33:06;;;;;;;1.60;1.10;;;12.40;98.20;;;;;;4951480;28;20498;-74
2022/02/17 02:35:33;;;;;;;1.60;1.00;;;12.40;98.20;;;;;;4951389;28;20473;-73
2022/02/17 02:38:01;;;;;;;1.60;1.00;;;12.30;98.20;;;;;;4951980;28;20466;-73
2022/02/17 02:40:28;;;;;;;1.60;1.10;;;12.30;98.20;;;;;;4950389;28;20477;-73
2022/02/17 02:42:55;;;;;;;1.70;1.47;;;12.30;98.20;;;;;;4953188;28;20486;-73
2022/02/17 02:45:21;;;;;;;1.60;1.10;;;12.30;98.20;;;;;;4951128;28;20474;-73
2022/02/17 02:47:48;;;;;;;1.60;1.10;;;12.30;98.20;;;;;;4946766;29;20463;-74
2022/02/17 02:50:15;;;;;;;1.60;1.10;;;12.20;98.20;;;;;;4948463;28;20582;-73
2022/02/17 02:52:42;;;;;;;1.60;1.10;;;12.20;98.20;;;;;;4952774;28;20499;-74
2022/02/17 02:55:10;;;;;;;1.70;1.20;;;12.20;98.20;;;;;;4950463;28;20986;-73
2022/02/17 02:57:37;;;;;;;1.60;1.17;;;12.10;98.20;;;;;;4931595;28;20482;-72
2022/02/17 03:00:05;;;;;;;1.60;1.10;;;12.10;98.20;;;;;;4947689;28;20458;-72
2022/02/17 03:02:32;;;;;;;1.60;1.10;;;12.00;98.20;;;;;;4949576;28;20490;-71
2022/02/17 03:04:59;;;;;;;1.60;1.20;;;11.90;98.20;;;;;;4950619;28;20471;-71
2022/02/17 03:07:26;;;;;;;1.60;1.10;;;11.70;98.20;;;;;;4951532;28;20823;-72
2022/02/17 03:09:52;;;;;;;1.60;1.10;;;11.50;98.20;;;;;;4950236;28;20495;-72
2022/02/17 03:12:21;;;;;;;1.60;1.10;;;11.40;98.20;;;;;;4950885;28;20494;-72
2022/02/17 03:14:48;;;;;;;1.60;1.10;;;11.20;98.20;;;;;;4950425;28;20497;-73
2022/02/17 03:17:14;;;;;;;1.60;1.10;;;11.20;98.20;;;;;;4948876;28;20834;-72
2022/02/17 03:19:41;;;;;;;1.60;1.10;;;11.10;98.20;;;;;;4950448;28;20963;-73
2022/02/17 03:22:08;;;;;;;1.60;1.00;;;11.10;98.20;;;;;;4950432;28;20513;-73
2022/02/17 03:24:35;;;;;;;1.60;1.20;;;11.10;98.20;;;;;;4951770;28;20474;-73
2022/02/17 03:27:01;;;;;;;1.60;1.10;;;11.10;98.20;;;;;;4950731;28;20467;-73
2022/02/17 03:29:30;;;;;;;1.60;1.23;;;11.10;98.20;;;;;;4949535;28;20483;-73
2022/02/17 03:31:56;;;;;;;1.60;1.10;;;11.10;98.20;;;;;;4950044;28;20490;-73
2022/02/17 03:34:24;;;;;;;1.60;1.10;;;11.20;98.20;;;;;;4953753;28;20474;-73
2022/02/17 03:36:51;;;;;;;1.63;1.20;;;11.20;98.20;;;;;;4951236;28;20489;-73
2022/02/17 03:39:19;;;;;;;1.60;1.10;;;11.20;98.20;;;;;;4950881;28;20967;-74
2022/02/17 03:41:46;;;;;;;1.60;1.10;;;11.20;98.20;;;;;;4950385;28;20495;-74
2022/02/17 03:44:13;;;;;;;1.60;1.20;;;11.20;98.20;;;;;;4949732;28;20545;-73
2022/02/17 03:46:41;;;;;;;1.60;1.17;;;11.20;98.20;;;;;;4950402;28;20463;-74
2022/02/17 03:49:08;;;;;;;1.60;1.20;;;11.20;98.20;;;;;;4946995;29;20864;-74
2022/02/17 03:51:35;;;;;;;1.60;1.00;;;11.20;98.20;;;;;;4948214;29;20513;-74
2022/02/17 03:54:03;;;;;;;1.60;1.10;;;11.20;98.20;;;;;;4946546;28;20478;-74
2022/02/17 03:56:30;;;;;;;1.60;1.20;;;11.30;98.20;;;;;;4946728;29;20463;-74
2022/02/17 03:59:03;;;;;;;1.60;1.10;;;11.20;98.20;;;;;;4950169;28;20466;-74
2022/02/17 04:01:32;;;;;;;1.60;1.10;;;11.20;98.20;;;;;;4948327;28;20467;-74
2022/02/17 04:04:02;;;;;;;1.67;1.20;;;11.20;98.20;;;;;;4955508;28;20844;-74
2022/02/17 04:06:29;;;;;;;1.60;1.10;;;11.20;98.20;;;;;;4952504;28;20467;-74
2022/02/17 04:08:56;;;;;;;1.60;1.10;;;11.20;98.20;;;;;;4950270;28;20496;-73
2022/02/17 04:11:23;;;;;;;1.60;1.10;;;11.20;98.20;;;;;;4948312;28;20463;-73
2022/02/17 04:13:50;;;;;;;1.60;1.20;;;11.20;98.20;;;;;;4950421;28;20471;-73
2022/02/17 04:16:17;;;;;;;1.60;1.10;;;11.20;98.20;;;;;;4948760;28;20955;-74
2022/02/17 04:18:44;;;;;;;1.60;1.10;;;11.20;98.20;;;;;;4950244;28;20553;-73
2022/02/17 04:21:13;;;;;;;1.60;1.10;;;11.20;98.20;;;;;;4948452;28;20463;-75
2022/02/17 04:23:44;;;;;;;1.60;1.10;;;11.20;98.20;;;;;;4945957;29;20519;-74
2022/02/17 04:26:11;;;;;;;1.60;1.20;;;11.20;98.20;;;;;;4948034;28;20555;-73
2022/02/17 04:28:38;;;;;;;1.60;1.10;;;11.10;98.20;;;;;;4949271;29;20982;-74
2022/02/17 04:31:06;;;;;;;1.60;1.10;;;11.10;98.20;;;;;;4948460;28;21275;-74
2022/02/17 04:33:33;;;;;;;1.60;1.10;;;11.10;98.20;;;;;;4954970;28;20773;-74
2022/02/17 04:36:00;;;;;;;1.60;1.10;;;11.10;98.20;;;;;;4948951;28;20486;-74
2022/02/17 04:38:28;;;;;;;1.60;1.10;;;11.10;98.20;;;;;;4949890;28;20849;-73
2022/02/17 04:43:39;;;;;;;1.60;1.10;;;11.00;98.20;;;;;;4950103;28;20990;-74
2022/02/17 04:46:06;;;;;;;1.60;1.10;;;11.00;98.20;;;;;;4948125;28;20485;-74
2022/02/17 04:48:33;;;;;;;1.60;1.20;;;11.00;98.20;;;;;;4949589;28;20497;-73
2022/02/17 04:51:00;;;;;;;1.60;1.10;;;10.90;98.20;;;;;;4948589;28;20486;-74
2022/02/17 04:53:28;;;;;;;1.60;1.10;;;10.90;98.20;;;;;;4949787;28;20494;-74
2022/02/17 04:55:55;;;;;;;1.60;1.30;;;10.90;98.20;;;;;;4947821;28;20481;-72
2022/02/17 04:58:22;;;;;;;1.60;1.10;;;10.90;98.20;;;;;;4946080;28;21062;-72
2022/02/17 05:00:49;;;;;;;1.60;1.10;;;10.80;98.20;;;;;;4947766;28;20466;-72
2022/02/17 05:03:16;;;;;;;1.60;1.10;;;10.70;98.20;;;;;;4947725;28;20502;-72
2022/02/17 05:05:44;;;;;;;1.67;1.30;;;10.60;98.20;;;;;;4946393;28;20501;-72
2022/02/17 05:08:11;;;;;;;1.60;1.20;;;10.60;98.20;;;;;;4948468;28;20471;-72
2022/02/17 05:10:39;;;;;;;1.60;1.10;;;10.60;98.20;;;;;;4946039;28;20491;-72
2022/02/17 05:13:06;;;;;;;1.60;1.20;;;10.60;98.20;;;;;;4949457;28;20490;-73
2022/02/17 05:15:32;;;;;;;1.60;1.20;;;10.60;98.20;;;;;;4952617;28;20672;-72
2022/02/17 05:17:59;;;;;;;2.70;2.50;;;10.70;98.20;;;;;;4953077;28;20462;-73
2022/02/17 05:20:26;;;;;;;1.63;1.27;;;10.60;98.20;;;;;;4950227;28;20471;-73
2022/02/17 05:22:53;;;;;;;1.60;1.30;;;10.60;98.20;;;;;;4957619;28;20498;-73
2022/02/17 05:25:19;;;;;;;1.60;1.20;;;10.50;98.20;;;;;;4955335;28;20651;-73
2022/02/17 05:27:48;;;;;;;1.60;1.10;;;10.50;98.20;;;;;;4952138;28;20549;-73
2022/02/17 05:30:15;;;;;;;1.60;1.20;;;10.50;98.20;;;;;;4948663;28;20482;-73
2022/02/17 05:32:43;;;;;;;1.60;1.10;;;10.50;98.20;;;;;;4952120;28;20560;-73
2022/02/17 05:35:12;;;;;;;1.60;1.10;;;10.50;98.20;;;;;;4951613;28;20554;-74
2022/02/17 05:37:39;;;;;;;1.60;1.20;;;10.40;98.20;;;;;;4951312;28;20504;-74
2022/02/17 05:40:09;;;;;;;1.60;1.10;;;10.50;98.20;;;;;;4950530;28;20844;-73
2022/02/17 05:42:36;;;;;;;1.60;1.23;;;10.50;98.20;;;;;;4948501;29;20505;-74
2022/02/17 05:45:06;;;;;;;1.60;1.20;;;10.50;98.20;;;;;;4951477;28;20971;-74
2022/02/17 05:47:33;;;;;;;1.60;1.10;;;10.50;98.20;;;;;;4951685;28;20951;-73
2022/02/17 05:50:00;;;;;;;1.60;1.20;;;10.50;98.20;;;;;;4950881;28;20490;-73
2022/02/17 05:52:30;;;;;;;1.60;1.10;;;10.50;98.20;;;;;;4950609;28;20486;-74
2022/02/17 05:54:58;;;;;;;1.60;1.10;;;10.50;98.20;;;;;;4951680;28;20905;-75
2022/02/17 05:57:24;;;;;;;1.60;1.13;;;10.50;98.20;;;;;;4951649;28;20479;-74
2022/02/17 05:59:51;;;;;;;1.60;1.10;;;10.50;98.20;;;;;;4949915;28;20466;-74
2022/02/17 06:02:19;;;;;;;1.60;1.20;;;10.50;98.20;;;;;;4949336;28;20493;-75
2022/02/17 06:04:47;;;;;;;1.60;1.20;;;10.40;98.20;;;;;;4948546;28;20463;-73
2022/02/17 06:07:14;;;;;;;1.60;1.20;;;10.40;98.20;;;;;;4946996;29;21068;-74
2022/02/17 06:09:41;;;;;;;1.60;1.20;;;10.40;98.20;;;;;;4951167;28;21366;-73
2022/02/17 06:12:08;;;;;;;1.60;1.20;;;10.40;98.20;;;;;;4950521;28;20594;-73
2022/02/17 06:14:35;;;;;;;1.60;1.10;;;10.30;98.20;;;;;;4950083;28;20969;-73
2022/02/17 06:17:02;;;;;;;1.70;1.60;;;10.30;98.20;;;;;;4951617;28;20470;-73
2022/02/17 06:19:30;;;;;;;1.60;1.20;;;10.30;98.20;;;;;;4956695;28;20910;-73
2022/02/17 06:21:57;;;;;;;1.60;1.20;;;10.30;98.20;;;;;;4964177;28;20478;-74
2022/02/17 06:24:24;;;;;;;1.60;1.20;;;10.30;98.20;;;;;;4948888;28;20467;-73
2022/02/17 06:26:51;;;;;;;1.60;1.20;;;10.20;98.20;;;;;;4949320;29;20485;-73
2022/02/17 06:29:18;;;;;;;1.60;1.20;;;10.20;98.20;;;;;;4950440;28;20467;-73
2022/02/17 06:31:44;;;;;;;1.60;1.20;;;10.20;98.20;;;;;;4950459;28;20487;-73
2022/02/17 06:34:11;;;;;;;1.60;1.30;;;10.20;98.20;;;;;;4951504;28;20920;-73
2022/02/17 06:36:40;;;;;;;1.60;1.10;;;10.20;98.20;;;;;;4954408;28;20466;-73
2022/02/17 06:39:06;;;;;;;1.63;1.23;;;10.10;98.20;;;;;;4951535;28;20490;-73
2022/02/17 06:41:33;;;;;;;1.60;1.20;;;10.10;98.20;;;;;;4949567;29;20479;-73
2022/02/17 06:44:00;;;;;;;1.60;1.10;;;10.10;98.20;;;;;;4953389;28;21199;-73
2022/02/17 06:46:27;;;;;;;1.60;1.13;;;10.10;98.20;;;;;;4950250;28;20471;-73
2022/02/17 06:48:54;;;;;;;1.60;1.20;;;10.10;98.20;;;;;;4950954;28;20482;-72
2022/02/17 06:51:21;;;;;;;1.60;1.40;;;10.10;98.20;;;;;;4950017;28;20578;-72
2022/02/17 06:53:49;;;;;;;1.60;1.17;;;10.10;98.20;;;;;;4949531;28;20547;-73
2022/02/17 06:56:16;;;;;;;1.60;1.10;;;10.10;98.20;;;;;;4949448;28;20473;-73
2022/02/17 06:58:42;;;;;;;1.60;1.20;;;10.10;98.20;;;;;;4951594;28;20474;-72
2022/02/17 07:01:09;;;;;;;1.60;1.23;;;10.10;98.00;;;;;;4949107;28;20463;-72
2022/02/17 07:03:36;;;;;;;1.60;1.20;;;10.10;98.00;;;;;;4952348;28;20486;-73
2022/02/17 07:06:03;;;;;;;1.60;1.20;;;10.10;97.50;;;;;;4950821;28;20490;-73
2022/02/17 07:08:30;;;;;;;1.60;1.20;;;10.10;98.20;;;;;;4951137;28;20466;-72
2022/02/17 07:10:59;;;;;;;1.60;1.13;;;10.20;97.00;;;;;;4949943;28;20505;-73
2022/02/17 07:13:28;;;;;;;1.60;1.17;;;10.20;97.60;;;;;;4949952;28;20518;-72
2022/02/17 07:15:56;;;;;;;1.60;1.10;;;10.20;96.60;;;;;;4950739;28;20467;-72
2022/02/17 07:18:23;;;;;;;1.60;1.20;;;10.20;96.10;;;;;;4950772;28;20513;-72
2022/02/17 07:20:53;;;;;;;1.60;1.10;;;10.20;96.30;;;;;;4949519;28;20473;-73
2022/02/17 07:23:23;;;;;;;1.60;1.20;;;10.20;96.60;;;;;;4954473;28;20563;-73
2022/02/17 07:25:51;;;;;;;1.60;1.20;;;10.20;96.80;;;;;;4951267;28;20470;-72
2022/02/17 07:28:22;;;;;;;1.60;1.20;;;10.30;96.50;;;;;;4950232;28;20478;-73
2022/02/17 07:30:49;;;;;;;1.60;1.20;;;10.30;96.40;;;;;;4948923;28;20549;-72
2022/02/17 07:33:16;;;;;;;1.60;1.30;;;10.30;97.20;;;;;;4951674;28;20494;-73
2022/02/17 07:35:44;;;;;;;1.60;1.20;;;10.30;97.80;;;;;;4951226;28;20470;-73
2022/02/17 07:38:11;;;;;;;1.60;1.10;;;10.30;98.20;;;;;;4950384;28;20494;-72
2022/02/17 07:40:40;;;;;;;1.60;1.20;;;10.30;98.20;;;;;;4949235;28;20459;-72
2022/02/17 07:43:07;;;;;;;1.60;1.10;;;10.30;98.20;;;;;;4952331;28;20487;-73
2022/02/17 07:45:36;;;;;;;1.60;1.10;;;10.30;98.20;;;;;;4949152;28;20863;-73
2022/02/17 07:48:03;;;;;;;7.33;2.53;;;10.30;98.20;;;;;;4951337;28;20477;-72
2022/02/17 07:50:30;;;;;;;1.60;1.10;;;10.30;97.20;;;;;;4949319;28;21084;-72
2022/02/17 07:52:57;;;;;;;1.60;1.10;;;10.40;97.70;;;;;;4948567;28;20965;-70
2022/02/17 07:55:25;;;;;;;1.60;1.20;;;10.40;97.40;;;;;;4948823;28;20474;-72
2022/02/17 07:57:52;;;;;;;1.60;1.20;;;10.40;96.70;;;;;;4948884;28;20967;-73
2022/02/17 08:00:19;;;;;;;1.60;1.10;;;10.40;95.60;;;;;;4947586;28;20490;-73
2022/02/17 08:02:47;;;;;;;1.60;1.10;;;10.40;95.70;;;;;;4948409;28;20494;-73
2022/02/17 08:05:14;;;;;;;4.13;3.73;;;10.50;95.20;;;;;;4952536;28;20471;-73
2022/02/17 08:07:41;;;;;;;1.60;1.10;;;10.60;92.70;;;;;;4950157;28;20499;-72
2022/02/17 08:10:08;;;;;;;3.00;2.80;;;10.70;92.80;;;;;;4949531;28;20625;-73
2022/02/17 08:12:40;;;;;;;1.60;1.20;;;10.80;92.80;;;;;;4950903;28;20475;-72
2022/02/17 08:15:08;;;;;;;1.60;1.20;;;10.80;93.30;;;;;;4950029;28;20572;-72
2022/02/17 08:17:35;;;;;;;1.60;1.20;;;10.90;93.10;;;;;;4936207;28;20513;-72
2022/02/17 08:20:04;;;;;;;1.60;1.10;;;10.90;93.80;;;;;;4948255;28;21263;-72
2022/02/17 08:22:31;;;;;;;1.60;1.20;;;10.80;94.40;;;;;;4951110;28;21155;-72
2022/02/17 08:24:58;;;;;;;1.60;1.20;;;10.80;94.80;;;;;;4947020;28;20473;-71
2022/02/17 08:27:25;;;;;;;1.60;1.20;;;10.70;94.80;;;;;;4946463;28;20462;-71
2022/02/17 08:40:26;;;;;;;1.60;1.10;;;10.70;95.30;;;;;;4759312;30;20994;-72
2022/02/17 08:42:52;;;;;;;1.60;1.10;;;10.80;94.60;;;;;;4760010;29;20861;-70
2022/02/17 08:45:19;;;;;;;2.27;2.07;;;10.90;93.30;;;;;;4965218;28;20496;-71
2022/02/17 08:47:46;;;;;;;1.60;1.10;;;11.00;93.20;;;;;;4967505;28;20469;-71
2022/02/17 08:50:13;;;;;;;1.60;1.20;;;11.10;92.90;;;;;;4969307;28;20478;-71
2022/02/17 08:52:40;;;;;;;1.60;1.20;;;11.20;92.60;;;;;;4968208;28;21040;-70
2022/02/17 08:55:15;;;;;;;1.60;1.10;;;11.20;92.60;;;;;;4974814;28;20862;-70
2022/02/17 08:57:47;;;;;;;1.60;1.10;;;11.20;93.70;;;;;;4967727;28;20466;-71
2022/02/17 09:00:15;;;;;;;1.60;1.10;;;11.20;94.10;;;;;;4968289;28;20472;-71
2022/02/17 09:02:42;;;;;;;1.60;1.20;;;11.30;93.80;;;;;;4966825;28;20519;-70
2022/02/17 09:05:09;;;;;;;1.60;1.10;;;11.40;92.30;;;;;;4975378;28;20962;-70
2022/02/17 09:07:36;;;;;;;1.60;1.10;;;11.40;90.80;;;;;;4968503;28;20566;-70
2022/02/17 09:10:03;;;;;;;1.60;1.10;;;11.30;91.00;;;;;;4972557;28;20473;-70
2022/02/17 09:12:31;;;;;;;1.60;1.20;;;11.20;91.40;;;;;;4966628;28;20618;-71
2022/02/17 09:14:59;;;;;;;1.60;1.20;;;11.20;92.20;;;;;;4967807;28;21024;-70
2022/02/17 09:17:26;;;;;;;1.60;1.13;;;11.30;92.90;;;;;;4976444;28;20470;-70
2022/02/17 09:19:53;;;;;;;1.60;1.10;;;11.40;91.70;;;;;;4972812;28;20477;-70
2022/02/17 09:22:21;;;;;;;1.60;1.30;;;11.40;90.40;;;;;;4966137;28;20487;-70
2022/02/17 09:24:48;;;;;;;1.60;1.20;;;11.40;88.00;;;;;;4972733;28;20900;-70
2022/02/17 09:27:16;;;;;;;1.60;1.10;;;11.40;88.40;;;;;;4974083;28;20507;-69
2022/02/17 09:29:44;;;;;;;1.60;1.10;;;11.40;87.90;;;;;;4970161;28;20529;-71
2022/02/17 09:32:13;;;;;;;1.60;1.10;;;11.30;86.80;;;;;;4966098;28;20486;-72
2022/02/17 09:34:41;;;;;;;1.60;1.00;;;11.30;86.50;;;;;;4966817;28;20849;-71
2022/02/17 09:37:08;;;;;;;1.60;1.10;;;11.30;86.50;;;;;;4968147;28;20466;-70
2022/02/17 09:39:36;;;;;;;1.60;1.20;;;11.30;87.80;;;;;;4967029;28;20466;-70
2022/02/17 09:42:04;;;;;;;1.60;1.20;;;11.50;87.70;;;;;;4975817;28;20572;-71
2022/02/17 09:44:31;;;;;;;1.57;1.10;;;11.60;86.70;;;;;;4969039;28;20543;-70
2022/02/17 09:46:58;;;;;;;1.57;1.10;;;11.60;86.80;;;;;;4979320;28;20466;-71
2022/02/17 09:49:27;;;;;;;1.60;1.10;;;11.60;87.40;;;;;;4976025;28;20813;-71
2022/02/17 09:51:54;;;;;;;1.60;1.20;;;11.60;85.60;;;;;;4972526;28;20777;-71
2022/02/17 09:54:21;;;;;;;1.60;1.10;;;11.60;86.00;;;;;;4971568;28;20466;-70
2022/02/17 09:56:48;;;;;;;1.60;1.10;;;11.60;87.10;;;;;;4967339;28;20474;-70
2022/02/17 09:59:16;;;;;;;1.57;1.10;;;11.60;87.10;;;;;;4970174;28;20469;-71
2022/02/17 10:01:53;;;;;;;1.60;1.10;;;11.50;87.20;;;;;;4972159;28;20478;-71
2022/02/17 10:04:22;;;;;;;1.60;1.13;;;11.50;86.90;;;;;;4970446;28;20468;-71
2022/02/17 10:06:51;;;;;;;1.53;1.10;;;11.50;86.90;;;;;;4971198;28;20478;-71
2022/02/17 10:09:20;;;;;;;1.60;1.10;;;11.50;87.70;;;;;;4981639;28;20556;-70
2022/02/17 10:11:48;;;;;;;1.60;1.10;;;11.40;87.00;;;;;;4975908;28;20499;-71
2022/02/17 10:14:17;;;;;;;1.60;1.10;;;11.50;87.40;;;;;;4971301;28;20480;-71
2022/02/17 10:16:55;;;;;;;1.57;1.10;;;11.60;87.30;;;;;;4969120;28;20466;-71
2022/02/17 10:19:25;;;;;;;1.57;1.00;;;11.60;85.50;;;;;;4973148;28;20958;-72
2022/02/17 10:22:01;;;;;;;1.50;1.10;;;11.50;85.20;;;;;;4967897;28;20584;-71
2022/02/17 10:24:33;;;;;;;1.60;1.10;;;11.40;86.10;;;;;;4978193;28;21419;-71
2022/02/17 10:27:05;;;;;;;1.60;1.10;;;11.50;85.60;;;;;;4978342;28;20461;-71
2022/02/17 10:29:34;;;;;;;1.60;1.17;;;11.60;85.20;;;;;;4971392;28;20465;-71
2022/02/17 10:32:09;;;;;;;1.70;1.20;;;11.70;84.80;;;;;;4971250;28;20517;-71
2022/02/17 10:34:36;;;;;;;1.60;1.20;;;11.60;84.10;;;;;;4967425;28;20548;-71
2022/02/17 10:37:06;;;;;;;1.60;1.10;;;11.50;83.10;;;;;;4966775;28;20460;-71
2022/02/17 10:39:42;;;;;;;1.57;1.10;;;11.40;82.50;;;;;;4970134;28;20540;-71
2022/02/17 10:42:10;;;;;;;1.60;1.10;;;11.30;83.00;;;;;;4970143;28;20490;-71
2022/02/17 10:44:39;;;;;;;1.60;1.13;;;11.40;84.70;;;;;;4968720;28;20458;-70
2022/02/17 10:47:13;;;;;;;2.90;2.70;;;11.50;83.10;;;;;;4964423;28;20507;-71
2022/02/17 10:49:45;;;;;;;1.57;1.10;;;11.60;82.80;;;;;;4979229;28;20489;-71
2022/02/17 10:52:14;;;;;;;1.60;1.00;;;11.70;83.90;;;;;;4969021;28;21017;-71
2022/02/17 10:54:41;;;;;;;1.57;1.10;;;12.00;83.50;;;;;;4974356;28;20457;-71
2022/02/17 10:57:08;;;;;;;1.60;1.00;;;12.20;83.50;;;;;;4972433;28;20473;-70
2022/02/17 11:02:22;;;;;;;1.60;1.10;;;12.00;81.80;;;;;;4972228;28;20469;-71
2022/02/17 11:04:49;;;;;;;1.60;1.10;;;11.80;81.50;;;;;;4967834;28;20493;-71
2022/02/17 11:07:18;;;;;;;1.57;1.10;;;11.70;80.10;;;;;;4974760;28;20494;-71
2022/02/17 11:09:46;;;;;;;1.60;1.17;;;11.70;80.70;;;;;;4985068;28;20989;-70
2022/02/17 11:12:14;;;;;;;1.57;1.03;;;11.60;80.30;;;;;;4972590;28;20487;-70
2022/02/17 11:14:43;;;;;;;1.50;1.10;;;11.70;80.90;;;;;;4977940;28;20555;-71
2022/02/17 11:17:13;;;;;;;1.53;1.10;;;11.90;79.70;;;;;;4974498;28;20974;-71
2022/02/17 11:19:41;;;;;;;1.60;1.20;;;12.00;80.10;;;;;;4967357;28;20459;-70
2022/02/17 11:22:08;;;;;;;1.50;1.00;;;12.10;81.10;;;;;;4972294;28;20483;-70
2022/02/17 11:24:53;;;;;;;1.60;1.10;;;12.00;81.30;;;;;;4969343;28;20473;-71
2022/02/17 11:27:20;;;;;;;1.57;1.10;;;12.10;80.50;;;;;;4969710;28;20579;-71
2022/02/17 11:29:48;;;;;;;1.60;1.10;;;12.20;80.50;;;;;;4972714;28;20831;-71
2022/02/17 11:32:17;;;;;;;1.60;1.10;;;12.50;81.10;;;;;;4966969;28;20498;-71
2022/02/17 11:34:46;;;;;;;1.53;1.00;;;12.80;79.70;;;;;;4967829;28;20532;-71
2022/02/17 11:37:44;;;;;;;1.60;1.10;;;13.00;79.30;;;;;;4968195;28;20955;-72
2022/02/17 11:40:16;;;;;;;1.60;1.10;;;13.30;78.90;;;;;;4965834;28;20474;-71
2022/02/17 11:42:45;;;;;;;1.50;1.00;;;13.50;79.30;;;;;;4978834;28;20485;-71
2022/02/17 11:45:16;;;;;;;1.60;1.00;;;13.80;79.60;;;;;;4966461;28;20473;-71
2022/02/17 11:48:03;;;;;;;1.60;1.10;;;14.00;78.50;;;;;;4969010;28;20557;-72
2022/02/17 11:50:39;;;;;;;1.60;1.10;;;14.10;77.40;;;;;;4968920;28;20477;-71
2022/02/17 11:53:30;;;;;;;1.53;1.00;;;14.20;77.60;;;;;;4970289;28;20493;-71
2022/02/17 11:56:30;;;;;;;1.57;1.00;;;14.50;78.90;;;;;;4966564;28;20846;-71
2022/02/17 11:58:58;;;;;;;1.60;1.00;;;14.80;77.10;;;;;;4967786;28;20497;-71
2022/02/17 12:01:41;;;;;;;1.60;1.00;;;15.00;77.00;;;;;;4966276;28;20489;-71
2022/02/17 12:04:16;;;;;;;1.57;1.00;;;15.20;75.10;;;;;;4968293;28;20457;-71
2022/02/17 12:06:45;;;;;;;1.53;1.00;;;15.30;75.60;;;;;;4966429;28;20764;-71
2022/02/17 12:09:39;;;;;;;1.60;1.00;;;15.20;74.40;;;;;;4974921;28;20549;-72
2022/02/17 12:12:39;;;;;;;1.60;1.00;;;15.10;73.60;;;;;;4968234;28;20497;-71
2022/02/17 12:15:13;;;;;;;1.60;1.00;;;14.90;72.90;;;;;;4969973;28;20513;-70
2022/02/17 12:17:41;;;;;;;1.57;0.97;;;14.90;74.20;;;;;;4970021;28;20485;-70
2022/02/17 12:20:13;;;;;;;1.57;1.00;;;15.00;73.40;;;;;;4966070;28;20561;-70
2022/02/17 12:22:52;;;;;;;1.60;0.97;;;15.00;74.40;;;;;;4966406;28;20482;-70
2022/02/17 12:25:25;;;;;;;1.60;1.00;;;14.90;74.60;;;;;;4973828;28;20460;-70
2022/02/17 12:27:54;;;;;;;1.57;1.00;;;14.50;73.60;;;;;;4966930;28;20545;-71
2022/02/17 12:30:31;;;;;;;1.57;1.00;;;14.20;72.70;;;;;;4973048;28;20492;-73
2022/02/17 12:33:07;;;;;;;1.57;1.00;;;14.10;72.60;;;;;;4955431;28;21019;-72
2022/02/17 12:35:34;;;;;;;1.60;1.00;;;14.00;73.50;;;;;;4966125;28;20470;-72
2022/02/17 12:38:02;;;;;;;1.60;1.07;;;14.00;73.50;;;;;;4965903;28;20504;-75
2022/02/17 12:40:30;;;;;;;1.60;1.10;;;13.80;72.80;;;;;;4965958;28;20469;-76
2022/02/17 12:42:57;;;;;;;1.50;1.00;;;13.50;73.40;;;;;;4965717;28;20485;-74
2022/02/17 12:45:35;;;;;;;1.60;1.10;;;13.30;74.60;;;;;;4959579;28;20478;-72
2022/02/17 12:48:02;;;;;;;1.60;1.10;;;13.10;75.30;;;;;;4966740;28;20748;-73
2022/02/17 12:50:29;;;;;;;1.60;1.10;;;13.00;75.50;;;;;;4964644;28;20474;-73
2022/02/17 12:52:56;;;;;;;1.57;1.00;;;13.10;75.80;;;;;;4965911;28;21024;-71
2022/02/17 12:55:56;;;;;;;1.57;1.10;;;13.10;75.80;;;;;;4964081;28;20580;-71
2022/02/17 12:58:29;;;;;;;1.57;1.00;;;13.40;76.40;;;;;;4953356;28;20493;-71
2022/02/17 13:00:58;;;;;;;1.57;1.00;;;13.60;75.40;;;;;;4966497;28;20470;-72
2022/02/17 13:03:33;;;;;;;1.53;1.00;;;13.80;76.10;;;;;;4966662;28;21175;-77
2022/02/17 13:06:19;;;;;;;1.60;1.00;;;14.00;76.00;;;;;;4967375;28;21016;-74
2022/02/17 13:08:48;;;;;;;1.53;1.00;;;13.90;76.80;;;;;;4969094;28;20465;-75
2022/02/17 13:11:17;;;;;;;1.57;1.00;;;13.80;75.90;;;;;;4963151;28;20462;-73